createdAt,value
2019-01-08T00:00:52.647Z,91.50
2019-01-08T00:03:21.053Z,91.40
2019-01-08T00:05:49.502Z,91.20
2019-01-08T00:08:18.232Z,91.60
2019-01-08T00:10:46.707Z,91.70
2019-01-08T00:13:15.189Z,91.70
2019-01-08T00:15:43.526Z,91.50
2019-01-08T00:18:11.885Z,91.30
2019-01-08T00:20:40.187Z,91.30
2019-01-08T00:23:08.533Z,91.40
2019-01-08T00:25:37.011Z,91.50
2019-01-08T00:28:05.419Z,91.50
2019-01-08T00:30:33.958Z,91.40
2019-01-08T00:33:02.592Z,91.50
2019-01-08T00:35:30.900Z,91.50
2019-01-08T00:37:59.431Z,91.10
2019-01-08T00:40:27.860Z,91.30
2019-01-08T00:42:56.211Z,91.60
2019-01-08T00:45:24.750Z,91.60
2019-01-08T00:47:53.058Z,91.60
2019-01-08T00:50:21.468Z,91.70
2019-01-08T00:52:50.098Z,92.00
2019-01-08T00:55:18.535Z,92.00
2019-01-08T00:57:46.951Z,92.30
2019-01-08T01:00:15.745Z,93.00
2019-01-08T01:02:44.118Z,92.90
2019-01-08T01:05:12.535Z,92.70
2019-01-08T01:07:40.851Z,92.80
2019-01-08T01:10:09.272Z,93.00
2019-01-08T01:12:37.597Z,92.80
2019-01-08T01:15:06.001Z,92.90
2019-01-08T01:17:34.296Z,92.80
2019-01-08T01:20:02.651Z,92.90
2019-01-08T01:22:31.180Z,92.90
2019-01-08T01:24:59.534Z,92.90
2019-01-08T01:27:28.019Z,92.80
2019-01-08T01:29:56.373Z,92.60
2019-01-08T01:32:24.738Z,93.00
2019-01-08T01:34:53.120Z,92.50
2019-01-08T01:37:21.546Z,92.90
2019-01-08T01:39:49.856Z,92.90
2019-01-08T01:42:18.197Z,93.20
2019-01-08T01:44:46.685Z,92.80
2019-01-08T01:47:15.073Z,93.40
2019-01-08T01:49:43.430Z,93.20
2019-01-08T01:52:12.123Z,92.90
2019-01-08T01:54:40.664Z,93.70
2019-01-08T01:57:09.156Z,94.00
2019-01-08T01:59:37.550Z,93.70
2019-01-08T02:02:05.938Z,94.10
2019-01-08T02:04:34.625Z,93.70
2019-01-08T02:07:03.041Z,93.80
2019-01-08T02:09:31.725Z,94.10
2019-01-08T02:12:00.178Z,93.90
2019-01-08T02:14:28.526Z,94.40
2019-01-08T02:16:56.912Z,94.20
2019-01-08T02:19:25.261Z,94.00
2019-01-08T02:21:53.576Z,94.00
2019-01-08T02:24:22.309Z,94.00
2019-01-08T02:26:50.756Z,94.20
2019-01-08T02:29:19.331Z,94.20
2019-01-08T02:31:47.813Z,94.50
2019-01-08T02:34:16.716Z,94.80
2019-01-08T02:36:45.250Z,94.30
2019-01-08T02:39:13.724Z,94.70
2019-01-08T02:41:43.097Z,94.60
2019-01-08T02:44:11.730Z,94.80
2019-01-08T02:46:40.328Z,95.10
2019-01-08T02:49:08.827Z,95.10
2019-01-08T02:51:37.452Z,95.10
2019-01-08T02:54:05.901Z,95.00
2019-01-08T02:56:34.370Z,94.80
2019-01-08T02:59:02.678Z,95.20
2019-01-08T03:01:31.058Z,94.80
2019-01-08T03:03:59.415Z,95.10
2019-01-08T03:06:27.755Z,95.00
2019-01-08T03:08:56.204Z,94.80
2019-01-08T03:11:24.531Z,94.60
2019-01-08T03:13:52.907Z,94.60
2019-01-08T03:16:21.257Z,94.70
2019-01-08T03:18:49.571Z,94.70
2019-01-08T03:21:17.917Z,94.60
2019-01-08T03:23:46.307Z,95.00
2019-01-08T03:26:14.813Z,94.70
2019-01-08T03:28:43.114Z,94.90
2019-01-08T03:31:11.530Z,94.80
2019-01-08T03:33:39.976Z,94.80
2019-01-08T03:36:08.378Z,95.30
2019-01-08T03:38:36.855Z,95.50
2019-01-08T03:41:05.236Z,95.40
2019-01-08T03:43:33.699Z,95.30
2019-01-08T03:46:02.144Z,95.50
2019-01-08T03:48:30.654Z,95.60
2019-01-08T03:50:58.962Z,95.60
2019-01-08T03:53:27.310Z,95.70
2019-01-08T03:55:55.689Z,95.40
2019-01-08T03:58:24.023Z,95.40
2019-01-08T04:00:52.377Z,95.00
2019-01-08T04:03:21.048Z,95.30
2019-01-08T04:05:49.380Z,95.10
2019-01-08T04:08:17.847Z,95.40
2019-01-08T04:10:46.138Z,95.40
2019-01-08T04:13:14.543Z,95.20
2019-01-08T04:15:42.984Z,95.30
2019-01-08T04:18:11.416Z,95.20
2019-01-08T04:20:40.248Z,95.10
2019-01-08T04:23:08.623Z,95.10
2019-01-08T04:25:36.966Z,95.20
2019-01-08T04:28:05.278Z,95.00
2019-01-08T04:30:33.649Z,94.80
2019-01-08T04:33:02.213Z,94.90
2019-01-08T04:35:30.764Z,95.10
2019-01-08T04:37:59.227Z,94.90
2019-01-08T04:40:27.617Z,95.00
2019-01-08T04:42:56.001Z,94.70
2019-01-08T04:45:24.409Z,94.60
2019-01-08T04:47:52.928Z,94.70
2019-01-08T04:50:21.304Z,94.40
2019-01-08T04:52:49.683Z,94.60
2019-01-08T04:55:18.267Z,94.40
2019-01-08T04:57:46.633Z,94.30
2019-01-08T05:00:15.074Z,94.20
2019-01-08T05:02:43.456Z,94.30
2019-01-08T05:05:11.824Z,94.20
2019-01-08T05:07:40.182Z,94.00
2019-01-08T05:10:08.533Z,94.20
2019-01-08T05:12:36.899Z,94.40
2019-01-08T05:15:05.800Z,94.20
2019-01-08T05:17:34.336Z,94.20
2019-01-08T05:20:02.718Z,94.80
2019-01-08T05:22:31.084Z,94.40
2019-01-08T05:24:59.742Z,94.70
2019-01-08T05:27:28.073Z,94.70
2019-01-08T05:29:56.528Z,94.40
2019-01-08T05:32:24.965Z,94.60
2019-01-08T05:34:53.349Z,94.80
2019-01-08T05:37:21.768Z,95.00
2019-01-08T05:39:50.186Z,94.60
2019-01-08T05:42:18.682Z,94.70
2019-01-08T05:44:47.332Z,94.80
2019-01-08T05:47:16.580Z,95.00
2019-01-08T05:49:45.121Z,95.10
2019-01-08T05:52:13.644Z,94.90
2019-01-08T05:54:42.031Z,95.00
2019-01-08T05:57:10.563Z,94.60
2019-01-08T05:59:38.846Z,95.00
2019-01-08T06:02:07.297Z,94.70
2019-01-08T06:04:35.656Z,94.50
2019-01-08T06:07:03.963Z,94.50
2019-01-08T06:09:32.445Z,94.50
2019-01-08T06:12:00.818Z,94.40
2019-01-08T06:14:29.377Z,94.40
2019-01-08T06:16:57.769Z,94.70
2019-01-08T06:19:26.196Z,94.80
2019-01-08T06:21:54.583Z,94.90
2019-01-08T06:24:23.040Z,94.90
2019-01-08T06:26:51.425Z,94.70
2019-01-08T06:29:19.816Z,94.70
2019-01-08T06:31:48.254Z,94.60
2019-01-08T06:34:16.794Z,94.50
2019-01-08T06:36:45.171Z,94.60
2019-01-08T06:39:13.571Z,94.50
2019-01-08T06:41:41.908Z,94.30
2019-01-08T06:44:10.547Z,94.50
2019-01-08T06:46:43.050Z,94.40
2019-01-08T06:49:08.883Z,94.50
2019-01-08T06:51:37.330Z,94.40
2019-01-08T06:54:05.628Z,94.60
2019-01-08T06:56:33.976Z,94.70
2019-01-08T06:59:02.342Z,94.60
2019-01-08T07:01:31.043Z,94.30
2019-01-08T07:03:59.404Z,94.30
2019-01-08T07:06:27.815Z,94.30
2019-01-08T07:08:56.103Z,94.40
2019-01-08T07:11:24.451Z,94.30
2019-01-08T07:13:55.922Z,94.30
2019-01-08T07:16:24.318Z,94.40
2019-01-08T07:18:53.012Z,94.30
2019-01-08T07:21:21.431Z,93.90
2019-01-08T07:23:49.890Z,94.20
2019-01-08T07:26:18.313Z,94.40
2019-01-08T07:28:46.611Z,94.50
2019-01-08T07:31:15.025Z,94.40
2019-01-08T07:33:43.539Z,94.20
2019-01-08T07:36:11.990Z,97.90
2019-01-08T07:38:40.833Z,95.60
2019-01-08T07:41:09.302Z,94.70
2019-01-08T07:43:37.796Z,94.10
2019-01-08T07:46:06.109Z,93.30
2019-01-08T07:48:34.439Z,93.30
2019-01-08T07:51:04.121Z,93.40
2019-01-08T07:53:32.639Z,93.70
2019-01-08T07:56:01.011Z,93.70
2019-01-08T07:58:29.489Z,93.90
2019-01-08T08:00:57.926Z,93.90
2019-01-08T08:03:26.339Z,94.00
2019-01-08T08:05:54.719Z,94.00
2019-01-08T08:08:23.212Z,94.30
2019-01-08T08:10:51.513Z,94.40
2019-01-08T08:13:19.994Z,94.40
2019-01-08T08:15:51.742Z,94.40
2019-01-08T08:18:20.052Z,94.30
2019-01-08T08:20:48.520Z,94.50
2019-01-08T08:23:17.044Z,94.70
2019-01-08T08:25:45.517Z,94.30
2019-01-08T08:28:14.170Z,94.50
2019-01-08T08:30:42.624Z,94.50
2019-01-08T08:33:11.295Z,94.50
2019-01-08T08:35:39.598Z,94.80
2019-01-08T08:38:08.030Z,94.90
2019-01-08T08:40:36.535Z,95.00
2019-01-08T08:43:05.139Z,95.20
2019-01-08T08:45:33.474Z,95.10
2019-01-08T08:48:02.026Z,94.90
2019-01-08T08:50:30.591Z,95.00
2019-01-08T08:52:59.147Z,95.40
2019-01-08T08:55:27.730Z,95.10
2019-01-08T08:57:56.159Z,95.20
2019-01-08T09:00:24.505Z,95.20
2019-01-08T09:02:52.847Z,95.30
2019-01-08T09:05:21.421Z,95.40
2019-01-08T09:07:49.715Z,95.00
2019-01-08T09:10:18.051Z,95.00
2019-01-08T09:12:46.597Z,95.10
2019-01-08T09:15:14.992Z,94.90
2019-01-08T09:17:43.293Z,94.90
2019-01-08T09:20:11.744Z,95.00
2019-01-08T09:22:41.802Z,95.10
2019-01-08T09:25:10.589Z,95.10
2019-01-08T09:27:38.996Z,95.10
2019-01-08T09:30:09.745Z,94.90
2019-01-08T09:32:38.266Z,95.20
2019-01-08T09:35:06.585Z,95.10
2019-01-08T09:37:35.423Z,94.90
2019-01-08T09:40:04.780Z,95.00
2019-01-08T09:42:33.309Z,94.80
2019-01-08T09:45:01.997Z,94.80
2019-01-08T09:47:30.514Z,94.70
2019-01-08T09:49:59.574Z,94.20
2019-01-08T09:52:28.047Z,94.60
2019-01-08T09:54:56.340Z,94.70
2019-01-08T09:57:24.699Z,94.90
2019-01-08T09:59:53.041Z,94.70
2019-01-08T10:02:22.200Z,94.80
2019-01-08T10:04:50.489Z,95.00
2019-01-08T10:07:19.485Z,95.10
2019-01-08T10:09:47.998Z,95.00
2019-01-08T10:12:18.218Z,95.10
2019-01-08T10:14:46.513Z,95.10
2019-01-08T10:17:14.830Z,95.00
2019-01-08T10:19:46.249Z,94.70
2019-01-08T10:22:14.871Z,95.10
2019-01-08T10:24:44.070Z,94.80
2019-01-08T10:27:12.381Z,94.90
2019-01-08T10:29:40.846Z,95.00
2019-01-08T10:32:09.157Z,94.70
2019-01-08T10:34:37.566Z,94.90
2019-01-08T10:37:05.883Z,94.70
2019-01-08T10:39:34.470Z,94.50
2019-01-08T10:42:02.975Z,94.70
2019-01-08T10:44:31.771Z,95.00
2019-01-08T10:47:00.091Z,95.00
2019-01-08T10:49:28.803Z,95.10
2019-01-08T10:51:58.074Z,95.20
2019-01-08T10:54:26.459Z,95.10
2019-01-08T10:56:57.608Z,94.90
2019-01-08T10:59:25.932Z,94.90
2019-01-08T11:01:54.323Z,94.90
2019-01-08T11:04:22.648Z,94.50
2019-01-08T11:06:51.108Z,94.50
2019-01-08T11:09:19.486Z,94.40
2019-01-08T11:11:48.692Z,94.30
2019-01-08T11:14:16.983Z,94.40
2019-01-08T11:16:45.425Z,94.30
2019-01-08T11:19:13.736Z,94.30
2019-01-08T11:21:42.103Z,94.60
2019-01-08T11:24:10.492Z,94.50
2019-01-08T11:26:38.985Z,95.00
2019-01-08T11:29:07.381Z,94.30
2019-01-08T11:31:36.141Z,94.00
2019-01-08T11:34:04.430Z,93.70
2019-01-08T11:36:32.787Z,93.70
2019-01-08T11:39:01.176Z,94.20
2019-01-08T11:41:29.790Z,93.90
2019-01-08T11:43:58.307Z,94.10
2019-01-08T11:46:27.315Z,94.00
2019-01-08T11:48:55.675Z,94.30
2019-01-08T11:51:24.177Z,93.50
2019-01-08T11:53:52.649Z,93.30
2019-01-08T11:56:21.181Z,93.20
2019-01-08T11:58:49.569Z,93.10
2019-01-08T12:01:18.043Z,92.90
2019-01-08T12:03:46.400Z,93.10
2019-01-08T12:06:16.336Z,92.60
2019-01-08T12:08:44.814Z,92.70
2019-01-08T12:11:16.293Z,92.30
2019-01-08T12:13:45.055Z,92.50
2019-01-08T12:16:13.363Z,92.40
2019-01-08T12:18:41.725Z,92.50
2019-01-08T12:21:10.272Z,92.50
2019-01-08T12:23:38.896Z,92.60
2019-01-08T12:26:07.320Z,92.40
2019-01-08T12:28:35.832Z,92.60
2019-01-08T12:31:04.501Z,93.00
2019-01-08T12:33:33.023Z,93.00
2019-01-08T12:36:01.621Z,93.30
2019-01-08T12:38:30.079Z,93.20
2019-01-08T12:40:58.792Z,92.40
2019-01-08T12:43:27.226Z,92.70
2019-01-08T12:45:55.636Z,91.90
2019-01-08T12:48:24.589Z,92.10
2019-01-08T12:50:53.443Z,92.30
2019-01-08T12:53:24.435Z,92.10
2019-01-08T12:55:52.979Z,92.00
2019-01-08T12:58:21.666Z,91.70
2019-01-08T13:00:50.162Z,92.10
2019-01-08T13:03:18.822Z,92.00
2019-01-08T13:05:47.300Z,92.20
2019-01-08T13:08:15.740Z,92.10
2019-01-08T13:10:46.854Z,92.10
2019-01-08T13:13:15.516Z,92.40
2019-01-08T13:15:43.974Z,92.10
2019-01-08T13:18:12.639Z,91.90
2019-01-08T13:20:41.864Z,91.80
2019-01-08T13:23:10.294Z,91.70
2019-01-08T13:25:38.837Z,92.00
2019-01-08T13:28:07.284Z,92.00
2019-01-08T13:30:35.844Z,91.70
2019-01-08T13:33:04.199Z,91.90
2019-01-08T13:35:33.378Z,91.80
2019-01-08T13:38:02.101Z,91.90
2019-01-08T13:40:30.586Z,91.30
2019-01-08T13:42:59.227Z,91.40
2019-01-08T13:45:27.622Z,91.50
2019-01-08T13:47:56.451Z,91.30
2019-01-08T13:50:24.898Z,91.30
2019-01-08T13:52:53.598Z,90.90
2019-01-08T13:55:21.992Z,90.10
2019-01-08T13:57:50.669Z,90.20
2019-01-08T14:00:19.037Z,90.40
2019-01-08T14:03:06.807Z,90.10
2019-01-08T14:05:35.264Z,90.50
2019-01-08T14:08:04.352Z,90.50
2019-01-08T14:10:32.725Z,90.80
2019-01-08T14:13:01.089Z,91.20
2019-01-08T14:15:29.461Z,91.30
2019-01-08T14:18:00.468Z,91.60
2019-01-08T14:20:28.798Z,91.80
2019-01-08T14:22:57.461Z,91.80
2019-01-08T14:25:25.991Z,91.80
2019-01-08T14:27:55.054Z,92.20
2019-01-08T14:30:23.489Z,91.90
2019-01-08T14:32:52.106Z,91.80
2019-01-08T14:35:20.606Z,92.00
2019-01-08T14:37:48.964Z,92.10
2019-01-08T14:40:17.414Z,91.90
2019-01-08T14:42:45.808Z,92.00
2019-01-08T14:45:14.229Z,91.90
2019-01-08T14:47:42.786Z,91.90
2019-01-08T14:50:11.496Z,91.80
2019-01-08T14:52:40.101Z,91.80
2019-01-08T14:55:11.134Z,91.90
2019-01-08T14:57:39.512Z,92.20
2019-01-08T15:00:09.688Z,92.50
2019-01-08T15:02:38.121Z,92.40
2019-01-08T15:05:10.655Z,92.30
2019-01-08T15:07:38.941Z,92.40
2019-01-08T15:10:08.325Z,92.40
2019-01-08T15:12:36.638Z,92.50
2019-01-08T15:15:05.639Z,92.50
2019-01-08T15:17:34.030Z,92.70
2019-01-08T15:20:02.633Z,92.60
2019-01-08T15:22:30.992Z,92.80
2019-01-08T15:24:59.340Z,92.70
2019-01-08T15:27:27.718Z,92.60
2019-01-08T15:29:56.170Z,92.40
2019-01-08T15:32:26.191Z,92.30
2019-01-08T15:34:54.684Z,92.20
2019-01-08T15:37:23.233Z,91.90
2019-01-08T15:39:51.630Z,92.10
2019-01-08T15:42:19.943Z,92.10
2019-01-08T15:44:48.258Z,91.70
2019-01-08T15:47:16.732Z,91.70
2019-01-08T15:49:45.170Z,91.90
2019-01-08T15:52:13.498Z,91.90
2019-01-08T15:54:41.989Z,91.80
2019-01-08T15:57:10.511Z,91.90
2019-01-08T15:59:38.973Z,91.70
2019-01-08T16:02:07.492Z,91.70
2019-01-08T16:04:35.781Z,91.50
2019-01-08T16:07:04.190Z,91.70
2019-01-08T16:09:32.569Z,91.30
2019-01-08T16:12:00.986Z,91.40
2019-01-08T16:14:31.056Z,91.40
2019-01-08T16:16:59.576Z,91.60
2019-01-08T16:19:28.101Z,91.50
2019-01-08T16:21:56.474Z,91.60
2019-01-08T16:24:24.836Z,91.20
2019-01-08T16:26:53.180Z,91.40
2019-01-08T16:29:21.750Z,91.40
2019-01-08T16:31:50.270Z,91.60
2019-01-08T16:34:19.474Z,91.60
2019-01-08T16:36:48.364Z,91.90
2019-01-08T16:39:17.103Z,91.70
2019-01-08T16:41:46.045Z,91.70
2019-01-08T16:44:14.619Z,91.60
2019-01-08T16:46:43.070Z,91.30
2019-01-08T16:49:12.417Z,91.20
2019-01-08T16:51:41.147Z,91.00
2019-01-08T16:54:09.675Z,90.90
2019-01-08T16:56:38.161Z,90.80
2019-01-08T16:59:06.653Z,90.60
2019-01-08T17:01:35.405Z,90.40
2019-01-08T17:04:03.835Z,90.60
2019-01-08T17:06:32.816Z,90.60
2019-01-08T17:09:01.494Z,90.80
2019-01-08T17:11:29.924Z,90.50
2019-01-08T17:13:58.401Z,90.80
2019-01-08T17:16:26.824Z,90.70
2019-01-08T17:18:55.320Z,90.50
2019-01-08T17:21:23.701Z,90.60
2019-01-08T17:23:52.354Z,90.50
2019-01-08T17:26:20.762Z,90.20
2019-01-08T17:28:49.457Z,90.30
2019-01-08T17:31:18.660Z,90.70
2019-01-08T17:33:47.082Z,90.70
2019-01-08T17:36:17.284Z,90.70
2019-01-08T17:38:45.658Z,90.80
2019-01-08T17:41:14.002Z,90.80
2019-01-08T17:43:42.356Z,91.40
2019-01-08T17:46:11.664Z,91.40
2019-01-08T17:48:40.313Z,91.50
2019-01-08T17:51:08.753Z,91.50
2019-01-08T17:53:37.262Z,92.00
2019-01-08T17:56:05.817Z,91.80
2019-01-08T17:58:40.102Z,91.80
2019-01-08T18:01:11.815Z,91.80
2019-01-08T18:03:42.867Z,91.60
2019-01-08T18:06:10.704Z,91.50
2019-01-08T18:08:39.178Z,91.80
2019-01-08T18:11:07.766Z,91.70
2019-01-08T18:13:36.281Z,92.00
2019-01-08T18:16:04.633Z,91.60
2019-01-08T18:18:33.445Z,91.70
2019-01-08T18:21:02.096Z,91.80
2019-01-08T18:23:30.543Z,91.90
2019-01-08T18:25:59.402Z,92.00
2019-01-08T18:28:27.986Z,91.90
2019-01-08T18:30:56.477Z,92.10
2019-01-08T18:33:24.922Z,92.20
2019-01-08T18:35:53.592Z,92.40
2019-01-08T18:38:21.972Z,92.50
2019-01-08T18:40:50.778Z,92.50
2019-01-08T18:43:19.396Z,92.30
2019-01-08T18:45:48.029Z,92.30
2019-01-08T18:48:16.659Z,92.50
2019-01-08T18:50:45.056Z,92.30
2019-01-08T18:53:13.514Z,92.60
2019-01-08T18:55:41.968Z,92.50
2019-01-08T18:58:10.916Z,92.50
2019-01-08T19:00:39.285Z,92.60
2019-01-08T19:03:08.039Z,92.70
2019-01-08T19:05:36.543Z,92.60
2019-01-08T19:08:05.053Z,92.50
2019-01-08T19:10:33.451Z,92.60
2019-01-08T19:13:02.058Z,92.60
2019-01-08T19:15:30.675Z,92.60
2019-01-08T19:17:59.154Z,92.60
2019-01-08T19:20:27.667Z,92.60
2019-01-08T19:22:56.008Z,92.60
2019-01-08T19:25:24.522Z,92.50
2019-01-08T19:27:52.884Z,92.70
2019-01-08T19:30:21.415Z,92.90
2019-01-08T19:32:49.793Z,93.10
2019-01-08T19:35:18.296Z,93.20
2019-01-08T19:37:46.709Z,93.40
2019-01-08T19:40:15.372Z,93.80
2019-01-08T19:42:43.833Z,93.50
2019-01-08T19:45:12.422Z,93.50
2019-01-08T19:47:40.697Z,93.70
2019-01-08T19:50:09.541Z,93.80
2019-01-08T19:52:38.239Z,93.90
2019-01-08T19:55:06.742Z,93.80
2019-01-08T19:57:35.208Z,93.80
2019-01-08T20:00:03.898Z,93.60
2019-01-08T20:02:32.361Z,94.10
2019-01-08T20:05:00.945Z,93.90
2019-01-08T20:07:31.167Z,93.70
2019-01-08T20:10:00.367Z,93.80
2019-01-08T20:12:28.881Z,93.70
2019-01-08T20:14:57.263Z,93.80
2019-01-08T20:17:25.750Z,93.90
2019-01-08T20:19:54.185Z,94.20
2019-01-08T20:22:22.851Z,94.10
2019-01-08T20:24:51.252Z,94.10
2019-01-08T20:27:19.642Z,94.20
2019-01-08T20:29:47.968Z,94.40
2019-01-08T20:32:16.551Z,94.40
2019-01-08T20:34:44.976Z,94.60
2019-01-08T20:37:13.384Z,94.70
2019-01-08T20:39:41.880Z,94.60
2019-01-08T20:42:10.390Z,94.60
2019-01-08T20:44:38.888Z,94.60
2019-01-08T20:47:07.278Z,94.60
2019-01-08T20:49:35.704Z,94.60
2019-01-08T20:52:04.079Z,94.70
2019-01-08T20:54:32.675Z,94.60
2019-01-08T20:57:08.995Z,94.70
2019-01-08T20:59:31.250Z,94.50
2019-01-08T21:01:59.730Z,94.40
2019-01-08T21:04:35.311Z,94.40
2019-01-08T21:06:59.801Z,94.40
2019-01-08T21:09:29.612Z,94.50
2019-01-08T21:11:57.895Z,94.70
2019-01-08T21:14:26.259Z,94.50
2019-01-08T21:16:54.572Z,94.40
2019-01-08T21:19:22.942Z,94.50
2019-01-08T21:21:51.419Z,94.40
2019-01-08T21:24:28.276Z,94.40
2019-01-08T21:26:50.551Z,94.30
2019-01-08T21:29:19.028Z,94.40
2019-01-08T21:31:47.470Z,94.10
2019-01-08T21:34:15.878Z,94.00
2019-01-08T21:36:44.672Z,94.10
2019-01-08T21:39:14.023Z,94.00
2019-01-08T21:41:42.410Z,93.90
2019-01-08T21:44:11.101Z,94.10
2019-01-08T21:46:39.588Z,93.60
2019-01-08T21:49:08.174Z,93.70
2019-01-08T21:51:36.590Z,93.80
2019-01-08T21:54:04.944Z,93.80
2019-01-08T21:56:33.458Z,93.40
2019-01-08T21:59:01.771Z,93.50
2019-01-08T22:01:30.275Z,93.80
2019-01-08T22:03:58.687Z,93.80
2019-01-08T22:06:27.267Z,93.90
2019-01-08T22:08:56.225Z,94.00
2019-01-08T22:11:25.521Z,93.80
2019-01-08T22:13:53.859Z,93.90
2019-01-08T22:16:22.336Z,93.90
2019-01-08T22:18:50.736Z,93.90
2019-01-08T22:21:19.366Z,93.80
2019-01-08T22:23:47.667Z,93.70
2019-01-08T22:26:16.529Z,93.60
2019-01-08T22:28:45.550Z,93.60
2019-01-08T22:31:14.029Z,93.60
2019-01-08T22:33:42.608Z,93.20
2019-01-08T22:36:10.997Z,93.30
2019-01-08T22:38:39.549Z,93.50
2019-01-08T22:41:08.125Z,93.30
2019-01-08T22:43:36.554Z,93.20
2019-01-08T22:46:06.572Z,93.50
2019-01-08T22:48:34.975Z,93.70
2019-01-08T22:51:03.431Z,93.80
2019-01-08T22:53:31.921Z,93.90
2019-01-08T22:56:00.572Z,93.80
2019-01-08T22:58:29.038Z,93.80
2019-01-08T23:00:59.013Z,93.80
2019-01-08T23:03:27.555Z,93.60
2019-01-08T23:05:55.897Z,93.60
2019-01-08T23:08:24.408Z,93.70
2019-01-08T23:10:53.034Z,93.40
2019-01-08T23:13:21.692Z,93.90
2019-01-08T23:15:50.019Z,94.00
2019-01-08T23:18:18.551Z,93.80
2019-01-08T23:20:47.110Z,93.60
2019-01-08T23:23:15.418Z,93.40
2019-01-08T23:25:43.814Z,93.70
2019-01-08T23:28:13.008Z,93.60
2019-01-08T23:30:41.531Z,93.60
2019-01-08T23:33:09.975Z,93.50
2019-01-08T23:35:38.404Z,93.30
2019-01-08T23:38:06.924Z,93.30
2019-01-08T23:40:35.321Z,93.10
2019-01-08T23:43:03.633Z,93.20
2019-01-08T23:45:32.301Z,93.30
2019-01-08T23:48:00.741Z,93.30
2019-01-08T23:50:29.155Z,93.70
2019-01-08T23:53:06.797Z,93.60
2019-01-08T23:55:37.859Z,93.70
2019-01-08T23:58:07.177Z,93.90
